sensor_id;sensor_type;location;lat;lon;timestamp;P1;durP1;ratioP1;P2;durP2;ratioP2
26696;SDS011;14312;52.614;13.496;2023-08-20T00:01:27;10.52;;;9.70;;
26696;SDS011;14312;52.614;13.496;2023-08-20T00:04:13;11.27;;;10.38;;
26696;SDS011;14312;52.614;13.496;2023-08-20T00:07:00;10.90;;;10.05;;
26696;SDS011;14312;52.614;13.496;2023-08-20T00:09:46;10.77;;;9.98;;
26696;SDS011;14312;52.614;13.496;2023-08-20T00:12:32;11.40;;;10.50;;
26696;SDS011;14312;52.614;13.496;2023-08-20T00:15:18;10.07;;;9.27;;
26696;SDS011;14312;52.614;13.496;2023-08-20T00:18:05;10.43;;;9.57;;
26696;SDS011;14312;52.614;13.496;2023-08-20T00:20:52;10.15;;;9.35;;
26696;SDS011;14312;52.614;13.496;2023-08-20T00:23:39;10.57;;;9.77;;
26696;SDS011;14312;52.614;13.496;2023-08-20T00:26:25;10.18;;;9.38;;
26696;SDS011;14312;52.614;13.496;2023-08-20T00:29:11;10.02;;;9.25;;
26696;SDS011;14312;52.614;13.496;2023-08-20T00:31:57;9.10;;;8.40;;
26696;SDS011;14312;52.614;13.496;2023-08-20T00:34:43;10.18;;;9.38;;
26696;SDS011;14312;52.614;13.496;2023-08-20T00:37:30;9.52;;;8.77;;
26696;SDS011;14312;52.614;13.496;2023-08-20T00:40:16;9.50;;;8.70;;
26696;SDS011;14312;52.614;13.496;2023-08-20T00:43:02;9.70;;;8.88;;
26696;SDS011;14312;52.614;13.496;2023-08-20T00:45:49;9.88;;;9.18;;
26696;SDS011;14312;52.614;13.496;2023-08-20T00:48:35;9.52;;;8.57;;
26696;SDS011;14312;52.614;13.496;2023-08-20T00:51:21;8.77;;;8.07;;
26696;SDS011;14312;52.614;13.496;2023-08-20T00:54:07;8.77;;;8.18;;
26696;SDS011;14312;52.614;13.496;2023-08-20T00:56:54;9.77;;;8.93;;
26696;SDS011;14312;52.614;13.496;2023-08-20T00:59:40;8.43;;;7.82;;
26696;SDS011;14312;52.614;13.496;2023-08-20T01:02:27;8.68;;;7.88;;
26696;SDS011;14312;52.614;13.496;2023-08-20T01:05:13;8.55;;;8.02;;
26696;SDS011;14312;52.614;13.496;2023-08-20T01:11:12;8.82;;;8.15;;
26696;SDS011;14312;52.614;13.496;2023-08-20T01:14:14;8.65;;;7.95;;
26696;SDS011;14312;52.614;13.496;2023-08-20T01:17:01;8.35;;;7.75;;
26696;SDS011;14312;52.614;13.496;2023-08-20T01:19:48;8.55;;;7.95;;
26696;SDS011;14312;52.614;13.496;2023-08-20T01:25:42;8.38;;;7.78;;
26696;SDS011;14312;52.614;13.496;2023-08-20T01:28:50;8.57;;;7.97;;
26696;SDS011;14312;52.614;13.496;2023-08-20T01:31:37;8.48;;;7.85;;
26696;SDS011;14312;52.614;13.496;2023-08-20T01:34:24;8.55;;;7.95;;
26696;SDS011;14312;52.614;13.496;2023-08-20T01:37:10;8.82;;;8.13;;
26696;SDS011;14312;52.614;13.496;2023-08-20T01:39:56;8.23;;;7.63;;
26696;SDS011;14312;52.614;13.496;2023-08-20T01:42:42;8.30;;;7.70;;
26696;SDS011;14312;52.614;13.496;2023-08-20T01:45:28;7.95;;;7.22;;
26696;SDS011;14312;52.614;13.496;2023-08-20T01:48:14;8.55;;;7.95;;
26696;SDS011;14312;52.614;13.496;2023-08-20T01:51:00;8.13;;;7.53;;
26696;SDS011;14312;52.614;13.496;2023-08-20T01:53:46;8.05;;;7.40;;
26696;SDS011;14312;52.614;13.496;2023-08-20T01:56:32;7.88;;;7.28;;
26696;SDS011;14312;52.614;13.496;2023-08-20T01:59:19;7.60;;;7.05;;
26696;SDS011;14312;52.614;13.496;2023-08-20T02:02:07;7.68;;;6.97;;
26696;SDS011;14312;52.614;13.496;2023-08-20T02:04:53;7.55;;;6.95;;
26696;SDS011;14312;52.614;13.496;2023-08-20T02:07:38;7.97;;;7.38;;
26696;SDS011;14312;52.614;13.496;2023-08-20T02:10:24;7.85;;;7.25;;
26696;SDS011;14312;52.614;13.496;2023-08-20T02:13:10;7.18;;;6.57;;
26696;SDS011;14312;52.614;13.496;2023-08-20T02:15:57;7.18;;;6.68;;
26696;SDS011;14312;52.614;13.496;2023-08-20T02:18:47;8.05;;;7.30;;
26696;SDS011;14312;52.614;13.496;2023-08-20T02:21:33;7.15;;;6.65;;
26696;SDS011;14312;52.614;13.496;2023-08-20T02:24:19;7.13;;;6.63;;
26696;SDS011;14312;52.614;13.496;2023-08-20T02:27:05;7.40;;;6.80;;
26696;SDS011;14312;52.614;13.496;2023-08-20T02:29:51;7.18;;;6.55;;
26696;SDS011;14312;52.614;13.496;2023-08-20T02:32:37;7.00;;;6.45;;
26696;SDS011;14312;52.614;13.496;2023-08-20T02:35:23;6.93;;;6.35;;
26696;SDS011;14312;52.614;13.496;2023-08-20T02:38:09;7.30;;;6.80;;
26696;SDS011;14312;52.614;13.496;2023-08-20T02:40:55;7.55;;;6.88;;
26696;SDS011;14312;52.614;13.496;2023-08-20T02:43:41;8.25;;;7.65;;
26696;SDS011;14312;52.614;13.496;2023-08-20T02:46:27;7.53;;;6.93;;
26696;SDS011;14312;52.614;13.496;2023-08-20T02:49:13;7.40;;;6.78;;
26696;SDS011;14312;52.614;13.496;2023-08-20T02:52:00;7.07;;;6.57;;
26696;SDS011;14312;52.614;13.496;2023-08-20T02:54:46;7.38;;;6.80;;
26696;SDS011;14312;52.614;13.496;2023-08-20T02:57:32;7.82;;;7.13;;
26696;SDS011;14312;52.614;13.496;2023-08-20T03:00:18;7.93;;;7.32;;
26696;SDS011;14312;52.614;13.496;2023-08-20T03:03:04;7.10;;;6.60;;
26696;SDS011;14312;52.614;13.496;2023-08-20T03:05:53;7.30;;;6.70;;
26696;SDS011;14312;52.614;13.496;2023-08-20T03:08:39;6.97;;;6.47;;
26696;SDS011;14312;52.614;13.496;2023-08-20T03:11:25;7.93;;;7.22;;
26696;SDS011;14312;52.614;13.496;2023-08-20T03:14:11;8.07;;;7.47;;
26696;SDS011;14312;52.614;13.496;2023-08-20T03:16:57;7.80;;;7.10;;
26696;SDS011;14312;52.614;13.496;2023-08-20T03:19:55;7.75;;;7.05;;
26696;SDS011;14312;52.614;13.496;2023-08-20T03:22:43;7.55;;;6.82;;
26696;SDS011;14312;52.614;13.496;2023-08-20T03:25:28;7.38;;;6.82;;
26696;SDS011;14312;52.614;13.496;2023-08-20T03:28:15;7.18;;;6.65;;
26696;SDS011;14312;52.614;13.496;2023-08-20T03:31:01;7.32;;;6.80;;
26696;SDS011;14312;52.614;13.496;2023-08-20T03:33:48;7.05;;;6.45;;
26696;SDS011;14312;52.614;13.496;2023-08-20T03:36:34;7.07;;;6.57;;
26696;SDS011;14312;52.614;13.496;2023-08-20T03:39:19;6.75;;;6.25;;
26696;SDS011;14312;52.614;13.496;2023-08-20T03:42:06;6.32;;;5.82;;
26696;SDS011;14312;52.614;13.496;2023-08-20T03:44:52;7.00;;;6.50;;
26696;SDS011;14312;52.614;13.496;2023-08-20T03:47:37;10.80;;;6.88;;
26696;SDS011;14312;52.614;13.496;2023-08-20T03:50:23;7.00;;;6.50;;
26696;SDS011;14312;52.614;13.496;2023-08-20T03:53:09;7.10;;;6.25;;
26696;SDS011;14312;52.614;13.496;2023-08-20T03:55:55;6.88;;;6.28;;
26696;SDS011;14312;52.614;13.496;2023-08-20T03:58:41;6.85;;;6.38;;
26696;SDS011;14312;52.614;13.496;2023-08-20T04:01:27;6.80;;;6.30;;
26696;SDS011;14312;52.614;13.496;2023-08-20T04:04:13;7.18;;;6.65;;
26696;SDS011;14312;52.614;13.496;2023-08-20T04:06:59;6.95;;;6.45;;
26696;SDS011;14312;52.614;13.496;2023-08-20T04:09:45;7.60;;;7.00;;
26696;SDS011;14312;52.614;13.496;2023-08-20T04:12:31;7.40;;;6.78;;
26696;SDS011;14312;52.614;13.496;2023-08-20T04:15:17;7.55;;;6.93;;
26696;SDS011;14312;52.614;13.496;2023-08-20T04:18:03;7.00;;;6.40;;
26696;SDS011;14312;52.614;13.496;2023-08-20T04:20:50;7.32;;;6.72;;
26696;SDS011;14312;52.614;13.496;2023-08-20T04:23:36;7.07;;;6.57;;
26696;SDS011;14312;52.614;13.496;2023-08-20T04:26:22;6.53;;;6.07;;
26696;SDS011;14312;52.614;13.496;2023-08-20T04:29:08;6.72;;;6.22;;
26696;SDS011;14312;52.614;13.496;2023-08-20T04:31:54;6.82;;;6.32;;
26696;SDS011;14312;52.614;13.496;2023-08-20T04:34:40;6.70;;;6.20;;
26696;SDS011;14312;52.614;13.496;2023-08-20T04:37:26;7.07;;;6.57;;
26696;SDS011;14312;52.614;13.496;2023-08-20T04:40:12;7.07;;;6.40;;
26696;SDS011;14312;52.614;13.496;2023-08-20T04:42:58;6.65;;;6.15;;
26696;SDS011;14312;52.614;13.496;2023-08-20T04:45:44;6.88;;;6.38;;
26696;SDS011;14312;52.614;13.496;2023-08-20T04:48:30;6.80;;;6.30;;
26696;SDS011;14312;52.614;13.496;2023-08-20T04:51:16;7.18;;;6.68;;
26696;SDS011;14312;52.614;13.496;2023-08-20T04:54:02;6.80;;;6.30;;
26696;SDS011;14312;52.614;13.496;2023-08-20T04:56:48;7.20;;;6.50;;
26696;SDS011;14312;52.614;13.496;2023-08-20T04:59:34;6.90;;;6.30;;
26696;SDS011;14312;52.614;13.496;2023-08-20T05:02:20;7.30;;;6.70;;
26696;SDS011;14312;52.614;13.496;2023-08-20T05:05:06;7.32;;;6.68;;
26696;SDS011;14312;52.614;13.496;2023-08-20T05:07:52;7.03;;;6.43;;
26696;SDS011;14312;52.614;13.496;2023-08-20T05:10:38;6.68;;;6.18;;
26696;SDS011;14312;52.614;13.496;2023-08-20T05:13:24;7.07;;;6.38;;
26696;SDS011;14312;52.614;13.496;2023-08-20T05:16:10;6.75;;;6.25;;
26696;SDS011;14312;52.614;13.496;2023-08-20T05:18:55;6.93;;;6.43;;
26696;SDS011;14312;52.614;13.496;2023-08-20T05:21:41;7.60;;;7.05;;
26696;SDS011;14312;52.614;13.496;2023-08-20T05:24:27;7.60;;;6.97;;
26696;SDS011;14312;52.614;13.496;2023-08-20T05:27:14;6.57;;;6.07;;
26696;SDS011;14312;52.614;13.496;2023-08-20T05:30:02;6.70;;;6.10;;
26696;SDS011;14312;52.614;13.496;2023-08-20T05:32:47;7.45;;;6.82;;
26696;SDS011;14312;52.614;13.496;2023-08-20T05:35:32;7.30;;;6.75;;
26696;SDS011;14312;52.614;13.496;2023-08-20T05:38:18;7.15;;;6.55;;
26696;SDS011;14312;52.614;13.496;2023-08-20T05:41:05;7.00;;;6.50;;
26696;SDS011;14312;52.614;13.496;2023-08-20T05:43:51;7.15;;;6.57;;
26696;SDS011;14312;52.614;13.496;2023-08-20T05:46:37;7.25;;;6.65;;
26696;SDS011;14312;52.614;13.496;2023-08-20T05:49:23;7.13;;;6.60;;
26696;SDS011;14312;52.614;13.496;2023-08-20T05:52:09;8.10;;;7.43;;
26696;SDS011;14312;52.614;13.496;2023-08-20T05:54:55;6.90;;;6.40;;
26696;SDS011;14312;52.614;13.496;2023-08-20T05:57:41;7.10;;;6.60;;
26696;SDS011;14312;52.614;13.496;2023-08-20T06:00:28;7.03;;;6.50;;
26696;SDS011;14312;52.614;13.496;2023-08-20T06:03:14;6.78;;;6.28;;
26696;SDS011;14312;52.614;13.496;2023-08-20T06:06:00;6.47;;;5.97;;
26696;SDS011;14312;52.614;13.496;2023-08-20T06:08:46;7.70;;;7.10;;
26696;SDS011;14312;52.614;13.496;2023-08-20T06:11:32;7.25;;;6.65;;
26696;SDS011;14312;52.614;13.496;2023-08-20T06:14:17;7.28;;;6.68;;
26696;SDS011;14312;52.614;13.496;2023-08-20T06:17:03;7.97;;;7.28;;
26696;SDS011;14312;52.614;13.496;2023-08-20T06:19:49;7.45;;;6.85;;
26696;SDS011;14312;52.614;13.496;2023-08-20T06:22:35;7.22;;;6.63;;
26696;SDS011;14312;52.614;13.496;2023-08-20T06:25:21;7.30;;;6.70;;
26696;SDS011;14312;52.614;13.496;2023-08-20T06:28:08;6.32;;;5.82;;
26696;SDS011;14312;52.614;13.496;2023-08-20T06:30:55;7.03;;;6.53;;
26696;SDS011;14312;52.614;13.496;2023-08-20T06:33:40;7.25;;;6.65;;
26696;SDS011;14312;52.614;13.496;2023-08-20T06:36:26;6.80;;;6.22;;
26696;SDS011;14312;52.614;13.496;2023-08-20T06:39:12;7.43;;;6.82;;
26696;SDS011;14312;52.614;13.496;2023-08-20T06:41:58;7.10;;;6.53;;
26696;SDS011;14312;52.614;13.496;2023-08-20T06:44:44;6.53;;;6.03;;
26696;SDS011;14312;52.614;13.496;2023-08-20T06:47:30;6.75;;;6.25;;
26696;SDS011;14312;52.614;13.496;2023-08-20T06:50:16;7.00;;;6.45;;
26696;SDS011;14312;52.614;13.496;2023-08-20T06:53:02;7.25;;;6.65;;
26696;SDS011;14312;52.614;13.496;2023-08-20T06:55:48;6.78;;;6.28;;
26696;SDS011;14312;52.614;13.496;2023-08-20T06:58:34;7.43;;;6.82;;
26696;SDS011;14312;52.614;13.496;2023-08-20T07:01:21;6.20;;;5.60;;
26696;SDS011;14312;52.614;13.496;2023-08-20T07:04:07;6.80;;;6.20;;
26696;SDS011;14312;52.614;13.496;2023-08-20T07:06:52;6.80;;;6.25;;
26696;SDS011;14312;52.614;13.496;2023-08-20T07:09:39;6.90;;;6.30;;
26696;SDS011;14312;52.614;13.496;2023-08-20T07:12:25;6.55;;;6.00;;
26696;SDS011;14312;52.614;13.496;2023-08-20T07:15:11;6.95;;;6.40;;
26696;SDS011;14312;52.614;13.496;2023-08-20T07:17:57;6.30;;;5.80;;
26696;SDS011;14312;52.614;13.496;2023-08-20T07:20:43;6.70;;;6.10;;
26696;SDS011;14312;52.614;13.496;2023-08-20T07:23:29;7.13;;;6.60;;
26696;SDS011;14312;52.614;13.496;2023-08-20T07:26:15;6.65;;;6.15;;
26696;SDS011;14312;52.614;13.496;2023-08-20T07:29:01;6.53;;;6.00;;
26696;SDS011;14312;52.614;13.496;2023-08-20T07:31:47;7.15;;;6.57;;
26696;SDS011;14312;52.614;13.496;2023-08-20T07:34:33;6.68;;;6.18;;
26696;SDS011;14312;52.614;13.496;2023-08-20T07:37:19;6.50;;;6.00;;
26696;SDS011;14312;52.614;13.496;2023-08-20T07:40:05;6.15;;;5.75;;
26696;SDS011;14312;52.614;13.496;2023-08-20T07:42:52;6.22;;;5.72;;
26696;SDS011;14312;52.614;13.496;2023-08-20T07:45:38;6.47;;;5.97;;
26696;SDS011;14312;52.614;13.496;2023-08-20T07:48:24;6.53;;;6.00;;
26696;SDS011;14312;52.614;13.496;2023-08-20T07:51:10;6.18;;;5.57;;
26696;SDS011;14312;52.614;13.496;2023-08-20T07:53:56;6.63;;;6.13;;
26696;SDS011;14312;52.614;13.496;2023-08-20T07:56:43;6.80;;;6.30;;
26696;SDS011;14312;52.614;13.496;2023-08-20T07:59:29;7.22;;;6.63;;
26696;SDS011;14312;52.614;13.496;2023-08-20T08:02:15;6.43;;;5.93;;
26696;SDS011;14312;52.614;13.496;2023-08-20T08:05:01;6.70;;;6.20;;
26696;SDS011;14312;52.614;13.496;2023-08-20T08:07:47;7.53;;;6.93;;
26696;SDS011;14312;52.614;13.496;2023-08-20T08:10:33;7.32;;;6.80;;
26696;SDS011;14312;52.614;13.496;2023-08-20T08:13:20;7.15;;;6.65;;
26696;SDS011;14312;52.614;13.496;2023-08-20T08:16:07;6.70;;;6.20;;
26696;SDS011;14312;52.614;13.496;2023-08-20T08:18:53;6.53;;;6.03;;
26696;SDS011;14312;52.614;13.496;2023-08-20T08:21:39;7.28;;;6.57;;
26696;SDS011;14312;52.614;13.496;2023-08-20T08:24:25;7.93;;;7.32;;
26696;SDS011;14312;52.614;13.496;2023-08-20T08:27:11;6.50;;;6.00;;
26696;SDS011;14312;52.614;13.496;2023-08-20T08:29:57;6.78;;;6.18;;
26696;SDS011;14312;52.614;13.496;2023-08-20T08:32:43;6.05;;;5.63;;
26696;SDS011;14312;52.614;13.496;2023-08-20T08:35:29;6.57;;;5.97;;
26696;SDS011;14312;52.614;13.496;2023-08-20T08:38:15;7.20;;;6.63;;
26696;SDS011;14312;52.614;13.496;2023-08-20T08:41:01;6.10;;;5.70;;
26696;SDS011;14312;52.614;13.496;2023-08-20T08:43:49;7.60;;;7.00;;
26696;SDS011;14312;52.614;13.496;2023-08-20T08:46:37;6.53;;;6.03;;
26696;SDS011;14312;52.614;13.496;2023-08-20T08:49:24;6.90;;;6.30;;
26696;SDS011;14312;52.614;13.496;2023-08-20T08:52:11;6.75;;;6.25;;
26696;SDS011;14312;52.614;13.496;2023-08-20T08:54:58;6.80;;;6.30;;
26696;SDS011;14312;52.614;13.496;2023-08-20T08:57:43;6.93;;;6.43;;
26696;SDS011;14312;52.614;13.496;2023-08-20T09:00:29;6.45;;;5.95;;
26696;SDS011;14312;52.614;13.496;2023-08-20T09:03:18;6.72;;;6.22;;
26696;SDS011;14312;52.614;13.496;2023-08-20T09:06:07;6.10;;;5.60;;
26696;SDS011;14312;52.614;13.496;2023-08-20T09:09:03;5.85;;;5.45;;
26696;SDS011;14312;52.614;13.496;2023-08-20T09:11:50;5.90;;;5.50;;
26696;SDS011;14312;52.614;13.496;2023-08-20T09:14:36;6.38;;;5.78;;
26696;SDS011;14312;52.614;13.496;2023-08-20T09:17:21;6.50;;;6.00;;
26696;SDS011;14312;52.614;13.496;2023-08-20T09:20:12;7.13;;;6.53;;
26696;SDS011;14312;52.614;13.496;2023-08-20T09:22:58;7.15;;;6.65;;
26696;SDS011;14312;52.614;13.496;2023-08-20T09:25:44;7.50;;;6.90;;
26696;SDS011;14312;52.614;13.496;2023-08-20T09:28:40;8.15;;;7.50;;
26696;SDS011;14312;52.614;13.496;2023-08-20T09:31:37;7.28;;;6.75;;
26696;SDS011;14312;52.614;13.496;2023-08-20T09:34:24;8.57;;;7.88;;
26696;SDS011;14312;52.614;13.496;2023-08-20T09:37:10;8.18;;;7.40;;
26696;SDS011;14312;52.614;13.496;2023-08-20T09:39:57;7.88;;;7.18;;
26696;SDS011;14312;52.614;13.496;2023-08-20T09:42:44;7.13;;;6.55;;
26696;SDS011;14312;52.614;13.496;2023-08-20T09:45:31;6.40;;;5.97;;
26696;SDS011;14312;52.614;13.496;2023-08-20T09:48:19;6.70;;;6.20;;
26696;SDS011;14312;52.614;13.496;2023-08-20T09:51:10;6.40;;;5.88;;
26696;SDS011;14312;52.614;13.496;2023-08-20T09:54:13;6.25;;;5.85;;
26696;SDS011;14312;52.614;13.496;2023-08-20T09:57:12;6.22;;;5.72;;
26696;SDS011;14312;52.614;13.496;2023-08-20T10:00:04;6.63;;;6.18;;
26696;SDS011;14312;52.614;13.496;2023-08-20T10:02:55;7.20;;;6.65;;
26696;SDS011;14312;52.614;13.496;2023-08-20T10:05:41;6.70;;;6.20;;
26696;SDS011;14312;52.614;13.496;2023-08-20T10:08:28;5.97;;;5.47;;
26696;SDS011;14312;52.614;13.496;2023-08-20T10:11:14;5.70;;;5.30;;
26696;SDS011;14312;52.614;13.496;2023-08-20T10:14:00;5.53;;;5.10;;
26696;SDS011;14312;52.614;13.496;2023-08-20T10:16:46;5.20;;;4.80;;
26696;SDS011;14312;52.614;13.496;2023-08-20T10:19:32;5.80;;;5.40;;
26696;SDS011;14312;52.614;13.496;2023-08-20T10:22:19;5.03;;;4.53;;
26696;SDS011;14312;52.614;13.496;2023-08-20T10:25:06;4.90;;;4.50;;
26696;SDS011;14312;52.614;13.496;2023-08-20T10:28:10;4.20;;;3.90;;
26696;SDS011;14312;52.614;13.496;2023-08-20T10:33:55;4.20;;;3.80;;
26696;SDS011;14312;52.614;13.496;2023-08-20T10:36:43;3.70;;;3.40;;
26696;SDS011;14312;52.614;13.496;2023-08-20T10:39:29;3.30;;;3.10;;
26696;SDS011;14312;52.614;13.496;2023-08-20T10:45:04;3.05;;;2.85;;
26696;SDS011;14312;52.614;13.496;2023-08-20T10:47:54;3.15;;;2.92;;
26696;SDS011;14312;52.614;13.496;2023-08-20T10:50:40;3.13;;;2.90;;
26696;SDS011;14312;52.614;13.496;2023-08-20T10:53:26;2.63;;;2.50;;
26696;SDS011;14312;52.614;13.496;2023-08-20T10:56:16;2.60;;;2.40;;
26696;SDS011;14312;52.614;13.496;2023-08-20T10:59:07;2.70;;;2.50;;
26696;SDS011;14312;52.614;13.496;2023-08-20T11:01:54;2.58;;;2.40;;
26696;SDS011;14312;52.614;13.496;2023-08-20T11:04:42;4.20;;;2.85;;
26696;SDS011;14312;52.614;13.496;2023-08-20T11:07:29;2.78;;;2.58;;
26696;SDS011;14312;52.614;13.496;2023-08-20T11:10:17;2.55;;;2.35;;
26696;SDS011;14312;52.614;13.496;2023-08-20T11:13:03;2.60;;;2.40;;
26696;SDS011;14312;52.614;13.496;2023-08-20T11:15:51;2.25;;;2.05;;
26696;SDS011;14312;52.614;13.496;2023-08-20T11:18:37;1.90;;;1.80;;
26696;SDS011;14312;52.614;13.496;2023-08-20T11:21:23;2.22;;;2.08;;
26696;SDS011;14312;52.614;13.496;2023-08-20T11:24:09;1.80;;;1.70;;
26696;SDS011;14312;52.614;13.496;2023-08-20T11:26:56;2.00;;;1.90;;
26696;SDS011;14312;52.614;13.496;2023-08-20T11:29:42;3.25;;;2.35;;
26696;SDS011;14312;52.614;13.496;2023-08-20T11:32:30;2.00;;;1.90;;
26696;SDS011;14312;52.614;13.496;2023-08-20T11:35:16;1.73;;;1.63;;
26696;SDS011;14312;52.614;13.496;2023-08-20T11:38:03;1.85;;;1.63;;
26696;SDS011;14312;52.614;13.496;2023-08-20T11:40:49;2.65;;;1.88;;
26696;SDS011;14312;52.614;13.496;2023-08-20T11:43:35;1.52;;;1.42;;
26696;SDS011;14312;52.614;13.496;2023-08-20T11:46:22;1.85;;;1.52;;
26696;SDS011;14312;52.614;13.496;2023-08-20T11:49:10;1.70;;;1.60;;
26696;SDS011;14312;52.614;13.496;2023-08-20T11:51:56;1.48;;;1.38;;
26696;SDS011;14312;52.614;13.496;2023-08-20T11:54:42;1.50;;;1.40;;
26696;SDS011;14312;52.614;13.496;2023-08-20T11:57:29;1.58;;;1.42;;
26696;SDS011;14312;52.614;13.496;2023-08-20T12:00:23;1.60;;;1.50;;
26696;SDS011;14312;52.614;13.496;2023-08-20T12:03:12;1.63;;;1.52;;
26696;SDS011;14312;52.614;13.496;2023-08-20T12:05:58;1.92;;;1.80;;
26696;SDS011;14312;52.614;13.496;2023-08-20T12:08:44;1.73;;;1.63;;
26696;SDS011;14312;52.614;13.496;2023-08-20T12:11:30;1.58;;;1.48;;
26696;SDS011;14312;52.614;13.496;2023-08-20T12:14:17;1.42;;;1.33;;
26696;SDS011;14312;52.614;13.496;2023-08-20T12:17:04;1.50;;;1.40;;
26696;SDS011;14312;52.614;13.496;2023-08-20T12:19:50;1.65;;;1.50;;
26696;SDS011;14312;52.614;13.496;2023-08-20T12:22:36;1.60;;;1.50;;
26696;SDS011;14312;52.614;13.496;2023-08-20T12:25:22;1.70;;;1.60;;
26696;SDS011;14312;52.614;13.496;2023-08-20T12:28:08;2.10;;;1.60;;
26696;SDS011;14312;52.614;13.496;2023-08-20T12:30:53;1.80;;;1.67;;
26696;SDS011;14312;52.614;13.496;2023-08-20T12:33:39;1.50;;;1.40;;
26696;SDS011;14312;52.614;13.496;2023-08-20T12:36:25;1.60;;;1.50;;
26696;SDS011;14312;52.614;13.496;2023-08-20T12:39:12;1.70;;;1.60;;
26696;SDS011;14312;52.614;13.496;2023-08-20T12:41:59;1.80;;;1.63;;
26696;SDS011;14312;52.614;13.496;2023-08-20T12:44:45;1.73;;;1.63;;
26696;SDS011;14312;52.614;13.496;2023-08-20T12:47:30;1.75;;;1.65;;
26696;SDS011;14312;52.614;13.496;2023-08-20T12:50:16;1.77;;;1.42;;
26696;SDS011;14312;52.614;13.496;2023-08-20T12:53:02;1.33;;;1.30;;
26696;SDS011;14312;52.614;13.496;2023-08-20T12:55:48;1.70;;;1.60;;
26696;SDS011;14312;52.614;13.496;2023-08-20T12:58:34;1.48;;;1.38;;
26696;SDS011;14312;52.614;13.496;2023-08-20T13:01:20;1.55;;;1.45;;
26696;SDS011;14312;52.614;13.496;2023-08-20T13:04:06;1.65;;;1.55;;
26696;SDS011;14312;52.614;13.496;2023-08-20T13:06:52;1.38;;;1.27;;
26696;SDS011;14312;52.614;13.496;2023-08-20T13:09:38;1.17;;;1.10;;
26696;SDS011;14312;52.614;13.496;2023-08-20T13:12:24;1.40;;;1.30;;
26696;SDS011;14312;52.614;13.496;2023-08-20T13:15:12;1.50;;;1.40;;
26696;SDS011;14312;52.614;13.496;2023-08-20T13:17:59;1.20;;;1.10;;
26696;SDS011;14312;52.614;13.496;2023-08-20T13:20:45;1.38;;;1.27;;
26696;SDS011;14312;52.614;13.496;2023-08-20T13:23:31;1.60;;;1.10;;
26696;SDS011;14312;52.614;13.496;2023-08-20T13:26:17;1.00;;;1.00;;
26696;SDS011;14312;52.614;13.496;2023-08-20T13:29:03;1.10;;;1.00;;
26696;SDS011;14312;52.614;13.496;2023-08-20T13:31:49;1.30;;;1.20;;
26696;SDS011;14312;52.614;13.496;2023-08-20T13:34:35;1.20;;;1.10;;
26696;SDS011;14312;52.614;13.496;2023-08-20T13:37:21;1.20;;;1.10;;
26696;SDS011;14312;52.614;13.496;2023-08-20T13:40:07;1.30;;;1.20;;
26696;SDS011;14312;52.614;13.496;2023-08-20T13:42:54;2.25;;;1.10;;
26696;SDS011;14312;52.614;13.496;2023-08-20T13:45:40;1.10;;;1.10;;
26696;SDS011;14312;52.614;13.496;2023-08-20T13:48:27;1.17;;;1.08;;
26696;SDS011;14312;52.614;13.496;2023-08-20T13:51:13;1.20;;;1.10;;
26696;SDS011;14312;52.614;13.496;2023-08-20T13:54:01;0.90;;;0.90;;
26696;SDS011;14312;52.614;13.496;2023-08-20T13:56:47;1.20;;;1.10;;
26696;SDS011;14312;52.614;13.496;2023-08-20T13:59:33;0.88;;;0.88;;
26696;SDS011;14312;52.614;13.496;2023-08-20T14:02:19;1.02;;;1.00;;
26696;SDS011;14312;52.614;13.496;2023-08-20T14:05:06;1.10;;;1.00;;
26696;SDS011;14312;52.614;13.496;2023-08-20T14:07:53;1.00;;;0.90;;
26696;SDS011;14312;52.614;13.496;2023-08-20T14:10:39;1.02;;;0.93;;
26696;SDS011;14312;52.614;13.496;2023-08-20T14:13:25;1.67;;;1.20;;
26696;SDS011;14312;52.614;13.496;2023-08-20T14:16:12;1.65;;;1.27;;
26696;SDS011;14312;52.614;13.496;2023-08-20T14:18:58;2.38;;;1.30;;
26696;SDS011;14312;52.614;13.496;2023-08-20T14:21:44;1.23;;;1.13;;
26696;SDS011;14312;52.614;13.496;2023-08-20T14:24:30;1.75;;;1.17;;
26696;SDS011;14312;52.614;13.496;2023-08-20T14:27:16;1.35;;;1.25;;
26696;SDS011;14312;52.614;13.496;2023-08-20T14:30:03;1.48;;;1.30;;
26696;SDS011;14312;52.614;13.496;2023-08-20T14:32:50;1.65;;;1.15;;
26696;SDS011;14312;52.614;13.496;2023-08-20T14:35:36;2.00;;;1.23;;
26696;SDS011;14312;52.614;13.496;2023-08-20T14:38:22;1.95;;;1.20;;
26696;SDS011;14312;52.614;13.496;2023-08-20T14:41:07;3.40;;;1.30;;
26696;SDS011;14312;52.614;13.496;2023-08-20T14:43:53;2.13;;;1.30;;
26696;SDS011;14312;52.614;13.496;2023-08-20T14:46:39;1.10;;;1.00;;
26696;SDS011;14312;52.614;13.496;2023-08-20T14:49:25;1.55;;;1.20;;
26696;SDS011;14312;52.614;13.496;2023-08-20T14:52:12;1.60;;;1.50;;
26696;SDS011;14312;52.614;13.496;2023-08-20T14:54:58;1.50;;;1.40;;
26696;SDS011;14312;52.614;13.496;2023-08-20T14:57:44;1.15;;;1.05;;
26696;SDS011;14312;52.614;13.496;2023-08-20T15:00:33;1.10;;;1.00;;
26696;SDS011;14312;52.614;13.496;2023-08-20T15:03:19;1.15;;;0.95;;
26696;SDS011;14312;52.614;13.496;2023-08-20T15:06:05;2.33;;;1.10;;
26696;SDS011;14312;52.614;13.496;2023-08-20T15:08:51;1.90;;;1.20;;
26696;SDS011;14312;52.614;13.496;2023-08-20T15:11:37;1.52;;;1.10;;
26696;SDS011;14312;52.614;13.496;2023-08-20T15:14:23;1.08;;;1.00;;
26696;SDS011;14312;52.614;13.496;2023-08-20T15:17:09;1.13;;;1.02;;
26696;SDS011;14312;52.614;13.496;2023-08-20T15:19:55;1.27;;;1.00;;
26696;SDS011;14312;52.614;13.496;2023-08-20T15:22:41;1.85;;;1.10;;
26696;SDS011;14312;52.614;13.496;2023-08-20T15:25:27;1.35;;;1.10;;
26696;SDS011;14312;52.614;13.496;2023-08-20T15:28:13;1.17;;;1.02;;
26696;SDS011;14312;52.614;13.496;2023-08-20T15:31:00;1.00;;;0.90;;
26696;SDS011;14312;52.614;13.496;2023-08-20T15:33:46;1.75;;;1.00;;
26696;SDS011;14312;52.614;13.496;2023-08-20T15:36:32;1.70;;;1.20;;
26696;SDS011;14312;52.614;13.496;2023-08-20T15:39:18;1.35;;;1.13;;
26696;SDS011;14312;52.614;13.496;2023-08-20T15:42:05;1.45;;;1.05;;
26696;SDS011;14312;52.614;13.496;2023-08-20T15:44:51;1.95;;;1.15;;
26696;SDS011;14312;52.614;13.496;2023-08-20T15:47:36;1.67;;;1.15;;
26696;SDS011;14312;52.614;13.496;2023-08-20T15:50:23;1.70;;;1.30;;
26696;SDS011;14312;52.614;13.496;2023-08-20T15:53:09;0.90;;;0.90;;
26696;SDS011;14312;52.614;13.496;2023-08-20T15:55:55;1.40;;;1.13;;
26696;SDS011;14312;52.614;13.496;2023-08-20T15:58:41;1.30;;;1.20;;
26696;SDS011;14312;52.614;13.496;2023-08-20T16:01:27;1.20;;;1.10;;
26696;SDS011;14312;52.614;13.496;2023-08-20T16:04:13;1.15;;;1.10;;
26696;SDS011;14312;52.614;13.496;2023-08-20T16:07:00;1.45;;;0.95;;
26696;SDS011;14312;52.614;13.496;2023-08-20T16:09:46;1.00;;;0.90;;
26696;SDS011;14312;52.614;13.496;2023-08-20T16:12:32;1.23;;;1.08;;
26696;SDS011;14312;52.614;13.496;2023-08-20T16:15:18;1.30;;;1.20;;
26696;SDS011;14312;52.614;13.496;2023-08-20T16:18:04;1.08;;;1.00;;
26696;SDS011;14312;52.614;13.496;2023-08-20T16:20:50;1.17;;;1.00;;
26696;SDS011;14312;52.614;13.496;2023-08-20T16:23:36;1.33;;;1.10;;
26696;SDS011;14312;52.614;13.496;2023-08-20T16:26:22;1.30;;;1.20;;
26696;SDS011;14312;52.614;13.496;2023-08-20T16:29:08;1.20;;;1.10;;
26696;SDS011;14312;52.614;13.496;2023-08-20T16:31:54;1.05;;;0.95;;
26696;SDS011;14312;52.614;13.496;2023-08-20T16:34:40;1.30;;;1.10;;
26696;SDS011;14312;52.614;13.496;2023-08-20T16:37:27;1.00;;;1.00;;
26696;SDS011;14312;52.614;13.496;2023-08-20T16:40:22;0.93;;;0.93;;